メインページ
METAR-TAF:

METAR-TAF

空港 :

ニューヨーク / ラガーディア, ニューヨーク, アメリカ合衆国

ラガーディア空港

緯度: 40-46-45N, 経度: 073-52-48W, 海抜: 6m

現時点の気象観測

当レポートは15分前の21:51(UTC)に作成
南/南東の風 7kt、南東からの間で変化する
気温 9°C
湿度 81%
気圧 1028 hPa
視程: 16.1km
高度2600ftの千切れ雲あり
高度3500ftの曇り

METAR: KLGA 192151Z 16007KT 130V190 10SM BKN026 OVC035 09/06 A3036 RMK AO2 SLP279 T00890056 $

時間: 17:06 (22:06 UTC)

予報

当レポートは1時間32分前の20:34(UTC)に作成
予報は19日の 21時(UTC)から 20日の 24時(UTC)まで有効
の風 9kt
視程: 10km
高度2500ftの雲は散在している
高度3500ftの千切れ雲あり
19日の 2200時(UTC)から
の風 7kt
視程: 6.4km
高度2500ftの千切れ雲あり
高度4000ftの曇り
小雨, 靄
20日の 0300時(UTC)から
南/南西の風 5kt
視程: 8.0km
高度600ftの雲は散在している
高度1500ftの曇り
20日の 0700時(UTC)から
南/南西の風 5kt
視程: 3.2km
高度600ftの千切れ雲あり
高度1500ftの曇り
20日の 09時(UTC)から 20日の 12時(UTC)まで一時的に
視程: 1.6km
20日の 1200時(UTC)から
南/南西の風 7kt
視程: 6.4km
高度600ftの雲は散在している
高度2000ftの千切れ雲あり
20日の 1500時(UTC)から
南西の風 9kt
視程: 9.7km
高度1000ftの雲はほとんどない
高度2500ftの千切れ雲あり
20日の 1900時(UTC)から
南西の風 10kt
視程: 10km
高度2500ftの雲は散在している
高度25000ftの千切れ雲あり

TAF: KLGA 192034Z 1921/2024 17009KT P6SM SCT025 BKN035 FM192200 18007KT 4SM -RA BR BKN025 OVC040 WS020/21040KT FM200300 20005KT 5SM BR SCT006 OVC015 WS020/23035KT FM200700 21005KT 2SM BR BKN006 OVC015 WS020/23035KT TEMPO 2009/2012 1SM BR FM201200 21007KT 4SM BR SCT006 BKN020 FM201500 22009KT 6SM BR FEW010 BKN025 FM201900 23010KT P6SM SCT025 BKN250

4,000以上の空港の気象観測と天気予報(METAR報とTAF報)

利用可能な観測所は地図上に黄色い丸と赤い丸で示す。

丸の上にカーソルを重ねると観測所名を参照できる。

次にクリックすると気象観測と天気予報を参照できる。

マップの切り替え:黒色「×」印の緑ボタンをクリックして拡大、「-」印の緑ボタンをクリックして縮小、緑色の三角印をクリックして隣りの地図に切り替え


METAR-TAF: